Time;durP1;ratioP1;P1;durP2;ratioP2;P2;SDS_P1;SDS_P2;PMS_P1;PMS_P2;Temp;Humidity;BMP_temperature;BMP_pressure;BME280_temperature;BME280_humidity;BME280_pressure;Samples;Min_cycle;Max_cycle;Signal;HPM_P1;HPM_P2
2022/10/03 00:01:52;;;;;;;0.60;0.28;;;;;;;8.96;100.00;97377.38;4978560;28;20275;-75
2022/10/03 00:05:20;;;;;;;0.10;0.10;;;;;;;8.93;100.00;97383.13;5009733;28;20602;-76
2022/10/03 00:08:36;;;;;;;0.47;0.20;;;;;;;8.96;100.00;97388.03;5058598;28;20283;-77
2022/10/03 00:11:43;;;;;;;0.20;0.20;;;;;;;9.01;100.00;97374.84;5070848;28;20379;-76
2022/10/03 00:15:00;;;;;;;1.08;0.60;;;;;;;9.18;100.00;97375.97;5046659;28;20298;-76
2022/10/03 00:18:11;;;;;;;1.50;0.70;;;;;;;9.25;100.00;97377.75;5057158;28;20086;-74
2022/10/03 00:21:18;;;;;;;2.03;0.85;;;;;;;9.37;100.00;97376.03;5058583;28;20059;-75
2022/10/03 00:24:33;;;;;;;3.80;2.33;;;;;;;9.39;100.00;97373.94;5072089;28;20123;-76
2022/10/03 00:27:30;;;;;;;2.38;1.17;;;;;;;9.39;100.00;97376.63;5069781;28;20048;-75
2022/10/03 00:30:19;;;;;;;3.45;1.85;;;;;;;9.37;100.00;97373.34;5071750;28;20043;-75
2022/10/03 00:33:15;;;;;;;3.25;1.92;;;;;;;9.39;100.00;97380.09;5068831;28;20090;-76
2022/10/03 00:36:13;;;;;;;3.35;1.95;;;;;;;9.35;100.00;97386.94;5054165;28;20044;-76
2022/10/03 00:39:18;;;;;;;3.97;2.30;;;;;;;9.32;100.00;97391.88;5072515;28;20039;-76
2022/10/03 00:42:28;;;;;;;2.63;1.30;;;;;;;9.33;100.00;97390.84;5069723;28;20745;-76
2022/10/03 00:45:29;;;;;;;2.58;1.42;;;;;;;9.23;100.00;97401.19;5053657;28;20383;-76
2022/10/03 00:48:37;;;;;;;4.28;2.53;;;;;;;9.28;100.00;97399.53;5072124;28;20040;-76
2022/10/03 00:51:40;;;;;;;4.32;2.58;;;;;;;9.28;100.00;97401.38;5067507;28;20468;-75
2022/10/03 00:55:02;;;;;;;2.53;1.15;;;;;;;9.23;100.00;97406.53;5071012;28;20550;-75
2022/10/03 00:58:07;;;;;;;;;;;;;;;9.23;100.00;97407.34;5072965;28;20382;-74
2022/10/03 01:01:03;;;;;;;3.65;1.92;;;;;;;9.15;100.00;97411.09;5070145;28;19927;-75
2022/10/03 01:03:55;;;;;;;3.63;2.15;;;;;;;9.09;100.00;97411.97;5070680;28;20091;-75
2022/10/03 01:07:03;;;;;;;4.53;2.85;;;;;;;9.10;100.00;97413.59;5073562;28;20039;-75
2022/10/03 01:10:08;;;;;;;3.70;2.20;;;;;;;9.04;100.00;97408.31;5070906;28;20028;-75
2022/10/03 01:12:58;;;;;;;2.20;1.13;;;;;;;8.94;100.00;97401.59;5071284;28;20502;-75
2022/10/03 01:15:54;;;;;;;2.88;1.73;;;;;;;8.86;100.00;97406.34;5071675;28;20040;-75
2022/10/03 01:18:46;;;;;;;2.38;1.38;;;;;;;8.89;100.00;97403.28;5069078;28;20028;-75
2022/10/03 01:21:38;;;;;;;2.10;1.00;;;;;;;8.87;100.00;97408.00;5067447;28;20048;-75
2022/10/03 01:24:40;;;;;;;2.05;1.05;;;;;;;8.87;100.00;97405.31;5069527;28;20043;-75
2022/10/03 01:31:01;;;;;;;1.83;0.80;;;;;;;8.92;100.00;97405.50;5067647;28;20047;-75
2022/10/03 01:34:22;;;;;;;1.40;0.70;;;;;;;8.92;100.00;97406.31;5073068;28;20032;-75
2022/10/03 01:37:44;;;;;;;0.40;0.30;;;;;;;8.90;100.00;97411.06;5014156;28;20651;-75
2022/10/03 01:40:54;;;;;;;1.42;0.60;;;;;;;8.93;100.00;97407.13;5061297;28;20972;-74
2022/10/03 01:43:46;;;;;;;1.98;1.08;;;;;;;8.89;100.00;97416.63;5056135;28;20490;-74
2022/10/03 01:46:40;;;;;;;2.22;1.10;;;;;;;8.82;100.00;97423.84;5065602;28;20046;-74
2022/10/03 01:49:40;;;;;;;1.80;0.80;;;;;;;8.88;100.00;97421.16;5067492;28;20047;-74
2022/10/03 01:52:41;;;;;;;2.45;1.38;;;;;;;8.97;100.00;97416.38;5066239;28;21512;-75
2022/10/03 01:55:55;;;;;;;3.10;1.73;;;;;;;8.98;100.00;97420.66;5068045;28;20500;-75
2022/10/03 01:59:24;;;;;;;4.38;2.60;;;;;;;8.94;100.00;97420.25;5069221;28;20471;-75
2022/10/03 02:02:13;;;;;;;1.77;0.90;;;;;;;8.90;100.00;97428.94;4991434;28;20049;-75
2022/10/03 02:05:16;;;;;;;2.50;1.30;;;;;;;8.88;100.00;97431.00;5052666;28;20478;-75
2022/10/03 02:08:17;;;;;;;3.08;1.67;;;;;;;8.93;100.00;97439.16;5055934;28;20079;-75
2022/10/03 02:11:07;;;;;;;2.53;1.45;;;;;;;8.97;100.00;97427.03;5067907;28;20040;-76
2022/10/03 02:14:05;;;;;;;1.73;0.93;;;;;;;8.94;100.00;97424.78;5069112;28;20518;-76
2022/10/03 02:17:00;;;;;;;1.67;0.80;;;;;;;8.91;100.00;97430.56;5054736;28;20093;-75
2022/10/03 02:20:05;;;;;;;2.40;1.13;;;;;;;8.93;100.00;97425.81;5039357;28;20036;-76
2022/10/03 02:22:54;;;;;;;1.33;0.55;;;;;;;8.81;100.00;97438.22;5068289;28;20111;-75
2022/10/03 02:25:58;;;;;;;2.03;1.08;;;;;;;8.92;100.00;97437.53;5067590;28;20467;-75
2022/10/03 02:28:44;;;;;;;1.20;0.57;;;;;;;8.96;100.00;97438.75;5067704;28;20126;-76
2022/10/03 02:31:55;;;;;;;1.10;0.40;;;;;;;8.96;100.00;97429.94;5066402;28;20535;-74
2022/10/03 02:34:59;;;;;;;1.42;0.60;;;;;;;8.78;100.00;97439.44;5069010;28;20447;-74
2022/10/03 02:38:19;;;;;;;2.10;0.90;;;;;;;8.78;100.00;97444.78;5080617;28;20150;-74
2022/10/03 02:41:20;;;;;;;2.55;1.55;;;;;;;8.86;100.00;97447.22;5086872;28;20043;-75
2022/10/03 02:44:24;;;;;;;2.47;1.20;;;;;;;8.74;100.00;97445.44;5087720;28;20044;-75
2022/10/03 02:47:16;;;;;;;1.95;0.80;;;;;;;8.83;100.00;97450.31;5086988;28;20055;-74
2022/10/03 02:50:25;;;;;;;2.03;0.90;;;;;;;8.80;100.00;97452.59;5086027;28;20393;-75
2022/10/03 02:53:53;;;;;;;1.63;0.60;;;;;;;8.88;100.00;97457.69;5065131;28;20131;-75
2022/10/03 02:57:16;;;;;;;1.63;0.70;;;;;;;8.69;100.00;97459.41;5087169;28;20241;-75
2022/10/03 03:00:21;;;;;;;1.75;0.85;;;;;;;8.75;100.00;97465.75;5087937;28;20191;-75
2022/10/03 03:03:41;;;;;;;2.28;1.05;;;;;;;8.88;100.00;97463.03;5084640;28;20569;-76
2022/10/03 03:06:41;;;;;;;2.80;1.40;;;;;;;8.94;100.00;97462.97;5086708;28;20490;-75
2022/10/03 03:09:56;;;;;;;3.38;1.60;;;;;;;8.89;100.00;97462.00;5085567;28;20052;-75
2022/10/03 03:13:13;;;;;;;2.75;1.40;;;;;;;8.94;100.00;97459.50;5087854;28;20043;-75
2022/10/03 03:16:41;;;;;;;3.47;2.00;;;;;;;9.01;100.00;97462.94;5087649;28;20597;-76
2022/10/03 03:19:50;;;;;;;4.68;2.75;;;;;;;8.98;100.00;97470.56;5085707;28;20332;-76
2022/10/03 03:22:59;;;;;;;4.65;2.47;;;;;;;8.86;100.00;97471.22;5087766;28;20039;-75
2022/10/03 03:25:44;;;;;;;2.38;1.08;;;;;;;8.91;100.00;97471.41;5063731;28;20470;-75
2022/10/03 03:28:45;;;;;;;1.98;0.90;;;;;;;8.95;100.00;97477.16;5085799;28;20064;-75
2022/10/03 03:31:49;;;;;;;3.38;1.92;;;;;;;9.00;100.00;97477.34;5070083;28;20298;-76
2022/10/03 03:34:56;;;;;;;1.88;0.90;;;;;;;8.99;100.00;97470.34;5087775;28;20493;-75
2022/10/03 03:38:18;;;;;;;1.80;0.80;;;;;;;9.03;100.00;97484.94;5090983;28;20398;-75
2022/10/03 03:41:30;;;;;;;1.25;0.50;;;;;;;9.05;100.00;97485.53;5090186;28;20047;-75
2022/10/03 03:44:36;;;;;;;2.28;1.20;;;;;;;9.08;100.00;97487.75;5087729;28;20139;-75
2022/10/03 03:47:51;;;;;;;2.92;1.17;;;;;;;8.92;100.00;97481.06;5073354;28;20117;-75
2022/10/03 03:50:48;;;;;;;2.80;1.50;;;;;;;9.00;100.00;97489.84;5091301;28;20040;-75
2022/10/03 03:53:36;;;;;;;2.30;1.13;;;;;;;9.03;100.00;97487.59;5090163;28;20040;-74
2022/10/03 03:56:32;;;;;;;2.10;1.00;;;;;;;8.98;100.00;97483.94;5088228;28;20350;-75
2022/10/03 03:59:42;;;;;;;2.60;1.35;;;;;;;8.97;100.00;97483.09;5086750;28;20529;-75
2022/10/03 04:03:17;;;;;;;2.30;1.20;;;;;;;8.91;100.00;97495.44;5088314;28;20679;-75
2022/10/03 04:06:35;;;;;;;2.70;1.50;;;;;;;8.91;100.00;97499.97;5024156;28;20409;-75
2022/10/03 04:09:21;;;;;;;1.88;0.77;;;;;;;8.91;100.00;97505.31;5089421;28;20118;-75
2022/10/03 04:12:25;;;;;;;2.42;1.23;;;;;;;8.86;100.00;97500.59;5086172;28;20487;-75
2022/10/03 04:15:10;;;;;;;2.03;0.98;;;;;;;8.87;100.00;97507.59;5090196;28;20441;-75
2022/10/03 04:21:54;;;;;;;2.50;1.05;;;;;;;8.83;100.00;97500.22;5090740;28;20066;-75
2022/10/03 04:24:46;;;;;;;2.95;1.40;;;;;;;8.84;100.00;97488.50;5094239;28;20058;-75
2022/10/03 04:27:56;;;;;;;3.00;1.45;;;;;;;8.76;100.00;97486.06;5092595;28;20094;-75
2022/10/03 04:31:03;;;;;;;2.88;1.33;;;;;;;8.75;100.00;97495.13;5092084;28;20040;-76
2022/10/03 04:34:17;;;;;;;3.28;1.75;;;;;;;8.74;100.00;97496.97;5093701;28;20032;-75
2022/10/03 04:37:24;;;;;;;3.58;2.00;;;;;;;8.73;100.00;97490.00;5089717;28;20052;-76
2022/10/03 04:40:21;;;;;;;3.33;1.90;;;;;;;8.68;100.00;97483.66;5089500;28;20040;-76
2022/10/03 04:43:10;;;;;;;4.47;2.70;;;;;;;8.70;100.00;97486.91;5089994;28;20036;-76
2022/10/03 04:46:04;;;;;;;3.75;2.10;;;;;;;8.67;100.00;97485.50;5090514;28;20036;-75
2022/10/03 04:48:57;;;;;;;4.45;2.55;;;;;;;8.65;100.00;97483.03;5073228;28;20100;-75
2022/10/03 04:51:57;;;;;;;3.95;2.20;;;;;;;8.60;100.00;97477.50;5076067;28;20040;-75
2022/10/03 04:54:49;;;;;;;4.43;2.63;;;;;;;8.56;100.00;97470.13;5091485;28;20039;-75
2022/10/03 04:58:23;;;;;;;5.43;2.85;;;;;;;8.55;100.00;97474.66;5094373;28;20501;-75
2022/10/03 05:01:39;;;;;;;4.95;2.85;;;;;;;8.50;100.00;97481.66;5089234;28;20048;-75
2022/10/03 05:04:31;;;;;;;6.80;3.95;;;;;;;8.44;100.00;97477.97;5088201;28;20771;-75
2022/10/03 05:07:26;;;;;;;5.82;3.50;;;;;;;8.47;100.00;97477.53;5057142;28;20321;-75
2022/10/03 05:10:42;;;;;;;5.95;4.00;;;;;;;8.47;100.00;97477.53;5088580;28;20517;-75
2022/10/03 05:14:02;;;;;;;5.60;3.25;;;;;;;8.51;100.00;97488.63;5089510;28;20681;-75
2022/10/03 05:17:05;;;;;;;4.93;2.50;;;;;;;8.50;100.00;97493.16;5090205;28;20093;-75
2022/10/03 05:20:17;;;;;;;4.55;2.00;;;;;;;8.54;100.00;97505.03;5090621;28;20054;-75
2022/10/03 05:23:18;;;;;;;5.13;2.75;;;;;;;8.52;100.00;97501.75;5090129;28;20191;-76
2022/10/03 05:26:22;;;;;;;6.97;4.25;;;;;;;8.52;100.00;97499.09;5073327;28;20351;-76
2022/10/03 05:29:24;;;;;;;6.03;3.03;;;;;;;8.45;100.00;97508.94;5088722;28;20031;-76
2022/10/03 05:32:34;;;;;;;4.38;2.35;;;;;;;8.56;100.00;97519.00;5090055;28;20048;-76
2022/10/03 05:35:26;;;;;;;4.78;2.45;;;;;;;8.55;100.00;97521.84;5088484;28;20032;-75
2022/10/03 05:38:26;;;;;;;7.60;3.55;;;;;;;8.62;100.00;97514.66;5088721;28;20471;-76
2022/10/03 05:41:15;;;;;;;6.38;3.40;;;;;;;8.67;100.00;97524.69;5087790;28;20241;-75
2022/10/03 05:44:03;;;;;;;4.07;1.98;;;;;;;8.73;100.00;97516.69;5088530;28;20032;-76
2022/10/03 05:47:02;;;;;;;5.07;2.70;;;;;;;8.72;100.00;97517.72;5089680;28;20031;-76
2022/10/03 05:49:54;;;;;;;7.35;4.40;;;;;;;8.80;100.00;97506.81;5092483;28;20572;-76
2022/10/03 05:53:05;;;;;;;6.30;3.63;;;;;;;8.85;100.00;97522.97;5090812;28;20035;-75
2022/10/03 05:56:26;;;;;;;4.70;2.33;;;;;;;8.82;100.00;97518.06;5090356;28;20039;-75
2022/10/03 05:59:27;;;;;;;7.38;3.63;;;;;;;8.82;100.00;97518.06;5079786;28;20036;-76
2022/10/03 06:02:50;;;;;;;6.20;3.30;;;;;;;8.75;100.00;97527.97;5085772;28;20516;-76
2022/10/03 06:05:59;;;;;;;4.70;2.50;;;;;;;8.78;100.00;97526.69;5088113;28;20036;-75
2022/10/03 06:09:19;;;;;;;4.85;2.35;;;;;;;8.89;100.00;97534.88;5088723;28;20039;-76
2022/10/03 06:12:10;;;;;;;5.85;3.22;;;;;;;8.93;100.00;97536.09;5087927;28;20078;-76
2022/10/03 06:15:16;;;;;;;6.90;3.53;;;;;;;8.80;100.00;97543.34;5090813;28;20108;-76
2022/10/03 06:18:21;;;;;;;3.25;1.63;;;;;;;8.82;100.00;97543.94;5090505;28;20042;-76
2022/10/03 06:21:28;;;;;;;4.38;2.25;;;;;;;8.75;100.00;97551.97;5088719;28;20042;-75
2022/10/03 06:25:04;;;;;;;6.97;3.45;;;;;;;8.81;100.00;97553.00;5088469;28;20039;-74
2022/10/03 06:27:56;;;;;;;4.88;2.70;;;;;;;8.75;100.00;97556.50;5071290;28;20192;-75
2022/10/03 06:31:10;;;;;;;4.78;2.25;;;;;;;8.80;100.00;97556.69;5089119;28;20515;-75
2022/10/03 06:34:08;;;;;;;6.10;3.38;;;;;;;8.79;100.00;97563.03;5090723;27;20067;-75
2022/10/03 06:37:21;;;;;;;3.55;1.70;;;;;;;8.87;100.00;97568.97;5089690;28;20058;-75
2022/10/03 06:40:12;;;;;;;4.63;2.38;;;;;;;8.93;100.00;97568.13;5089517;28;20051;-75
2022/10/03 06:43:10;;;;;;;;;;;;;;;8.97;100.00;97565.88;5092389;28;20042;-75
2022/10/03 06:46:34;;;;;;;5.10;2.72;;;;;;;9.15;100.00;97563.31;5092735;28;19923;-75
2022/10/03 06:49:55;;;;;;;3.45;1.45;;;;;;;9.25;100.00;97576.19;5065488;28;20234;-75
2022/10/03 06:53:01;;;;;;;3.55;1.60;;;;;;;9.18;100.00;97567.41;5076387;28;20067;-76
2022/10/03 06:56:23;;;;;;;2.28;1.00;;;;;;;9.37;100.00;97568.34;5088694;28;20036;-76
2022/10/03 06:59:21;;;;;;;2.60;1.05;;;;;;;9.30;100.00;97564.91;5089367;28;20059;-76
2022/10/03 07:02:12;;;;;;;1.20;0.45;;;;;;;9.37;100.00;97565.69;5087877;28;20106;-76
2022/10/03 07:05:23;;;;;;;4.57;2.92;;;;;;;9.43;100.00;97570.19;5089317;28;20024;-75
2022/10/03 07:08:23;;;;;;;2.80;1.38;;;;;;;9.54;100.00;97568.66;5087208;28;20181;-76
2022/10/03 07:11:09;;;;;;;2.00;0.90;;;;;;;9.59;100.00;97566.19;5092648;28;20031;-76
2022/10/03 07:14:25;;;;;;;2.78;1.02;;;;;;;9.66;100.00;97566.97;5094375;28;20074;-76
2022/10/03 07:17:33;;;;;;;1.90;0.90;;;;;;;9.68;100.00;97573.72;5093215;28;20036;-76
2022/10/03 07:20:50;;;;;;;1.55;0.60;;;;;;;9.66;100.00;97577.66;5090259;28;20044;-76
2022/10/03 07:23:54;;;;;;;4.28;2.58;;;;;;;9.37;100.00;97584.38;5094508;28;20459;-76
2022/10/03 07:27:08;;;;;;;3.35;1.70;;;;;;;9.35;100.00;97586.44;5093079;28;20106;-76
2022/10/03 07:30:13;;;;;;;2.50;1.23;;;;;;;9.47;100.00;97577.53;5093526;28;20031;-76
2022/10/03 07:33:05;;;;;;;3.13;1.38;;;;;;;9.50;100.00;97589.66;5094035;28;20036;-75
2022/10/03 07:39:51;;;;;;;4.30;2.55;;;;;;;9.56;100.00;97599.47;4721626;28;10001349;-76
2022/10/03 07:43:13;;;;;;;2.67;1.15;;;;;;;9.59;100.00;97604.41;5089493;28;20509;-76
2022/10/03 07:46:25;;;;;;;2.13;1.00;;;;;;;9.57;100.00;97595.78;5077595;28;20039;-76
2022/10/03 07:49:37;;;;;;;2.20;1.05;;;;;;;9.66;100.00;97609.72;5065617;28;20349;-76
2022/10/03 07:52:38;;;;;;;2.15;0.82;;;;;;;9.72;100.00;97609.66;5091184;28;20039;-75
2022/10/03 07:55:30;;;;;;;1.55;0.52;;;;;;;9.80;100.00;97615.78;5088218;28;20668;-77
2022/10/03 07:58:38;;;;;;;1.35;0.50;;;;;;;9.77;100.00;97617.03;5090135;27;20070;-76
2022/10/03 08:01:49;;;;;;;1.60;0.68;;;;;;;9.84;100.00;97614.34;5088662;28;20059;-76
2022/10/03 08:05:13;;;;;;;0.30;0.20;;;;;;;9.89;100.00;97618.00;5094275;28;20086;-76
2022/10/03 08:08:53;;;;;;;0.65;0.32;;;;;;;10.02;100.00;97606.38;5093103;28;20301;-76
2022/10/03 08:11:41;;;;;;;0.20;0.10;;;;;;;10.23;100.00;97606.06;5052051;28;20044;-76
2022/10/03 08:15:03;;;;;;;0.38;0.20;;;;;;;10.33;100.00;97605.56;5092541;28;20183;-76
2022/10/03 08:17:52;;;;;;;0.57;0.30;;;;;;;10.34;100.00;97612.53;5094012;28;20036;-76
2022/10/03 08:20:58;;;;;;;0.30;0.20;;;;;;;10.30;100.00;97614.03;5090688;28;20126;-76
2022/10/03 08:24:03;;;;;;;0.20;0.20;;;;;;;10.33;100.00;97610.91;5078925;28;20073;-77
2022/10/03 08:27:10;;;;;;;0.20;0.20;;;;;;;10.44;100.00;97612.88;5092247;28;20047;-76
2022/10/03 08:30:05;;;;;;;0.20;0.20;;;;;;;10.64;100.00;97614.53;5069722;28;20149;-75
2022/10/03 08:33:17;;;;;;;0.10;0.10;;;;;;;10.68;100.00;97619.25;5091160;28;20371;-74
2022/10/03 08:36:29;;;;;;;0.10;0.10;;;;;;;10.77;100.00;97614.41;5064733;28;20212;-75
2022/10/03 08:39:26;;;;;;;0.20;0.20;;;;;;;10.86;100.00;97611.22;5089652;28;20039;-75
2022/10/03 08:42:51;;;;;;;0.15;0.15;;;;;;;10.94;100.00;97614.66;5062511;28;20035;-75
2022/10/03 08:45:42;;;;;;;0.30;0.20;;;;;;;10.70;100.00;97624.38;5089809;28;20042;-75
2022/10/03 08:49:05;;;;;;;0.20;0.20;;;;;;;10.89;100.00;97623.34;5092593;28;20337;-76
2022/10/03 08:51:54;;;;;;;0.10;0.10;;;;;;;10.98;100.00;97630.06;5093175;28;20571;-75
2022/10/03 08:54:56;;;;;;;0.15;0.10;;;;;;;11.11;100.00;97632.59;5092671;28;20066;-75
2022/10/03 08:58:03;;;;;;;0.10;0.10;;;;;;;11.16;100.00;97623.88;5092676;28;20085;-75
2022/10/03 09:01:11;;;;;;;0.20;0.20;;;;;;;11.08;100.00;97629.53;5090746;28;20032;-76
2022/10/03 09:04:36;;;;;;;0.22;0.20;;;;;;;11.05;100.00;97630.81;5093226;28;20040;-75
2022/10/03 09:08:00;;;;;;;0.10;0.10;;;;;;;11.05;100.00;97636.19;5091778;28;20111;-76
2022/10/03 09:11:21;;;;;;;0.17;0.17;;;;;;;11.00;100.00;97636.00;5091509;28;20432;-76
2022/10/03 09:14:30;;;;;;;0.20;0.20;;;;;;;10.67;100.00;97639.03;5092014;28;20035;-76
2022/10/03 09:17:38;;;;;;;0.20;0.20;;;;;;;10.90;100.00;97642.94;5090675;28;20031;-75
2022/10/03 09:20:48;;;;;;;0.20;0.20;;;;;;;11.32;100.00;97642.03;5090727;28;20506;-75
2022/10/03 09:23:37;;;;;;;0.10;0.10;;;;;;;11.32;100.00;97642.03;5093179;28;20150;-76
2022/10/03 09:26:32;;;;;;;0.13;0.13;;;;;;;11.62;100.00;97647.44;5090742;28;20036;-75
2022/10/03 09:29:55;;;;;;;0.20;0.20;;;;;;;11.66;100.00;97653.16;5091669;28;20050;-76
2022/10/03 09:32:56;;;;;;;0.30;0.20;;;;;;;11.71;100.00;97640.72;5093240;28;20058;-76
2022/10/03 09:36:19;;;;;;;0.38;0.20;;;;;;;12.05;100.00;97651.00;5090857;28;20505;-80
2022/10/03 09:39:41;;;;;;;0.30;0.20;;;;;;;11.89;100.00;97645.25;5070307;28;20041;-77
2022/10/03 09:42:55;;;;;;;0.20;0.20;;;;;;;11.77;100.00;97648.91;5041631;28;20050;-77
2022/10/03 09:46:06;;;;;;;0.17;0.15;;;;;;;11.93;100.00;97635.72;5074072;28;20040;-77
2022/10/03 09:49:12;;;;;;;0.20;0.20;;;;;;;12.04;100.00;97635.97;5071121;28;20585;-77
2022/10/03 09:52:13;;;;;;;0.15;0.15;;;;;;;12.89;100.00;97638.28;5069421;28;20046;-77
2022/10/03 09:55:11;;;;;;;0.30;0.30;;;;;;;13.50;100.00;97627.00;5074509;28;20054;-77
2022/10/03 09:58:16;;;;;;;0.10;0.10;;;;;;;13.89;100.00;97624.50;5075367;28;20101;-77
2022/10/03 10:01:37;;;;;;;0.10;0.10;;;;;;;14.31;100.00;97616.06;5069138;28;20160;-77
2022/10/03 10:04:38;;;;;;;0.20;0.20;;;;;;;14.90;100.00;97611.09;5072264;28;20037;-77
2022/10/03 10:07:57;;;;;;;0.10;0.10;;;;;;;15.44;100.00;97597.78;5070332;28;20044;-74
2022/10/03 10:10:59;;;;;;;0.20;0.20;;;;;;;16.26;100.00;97607.56;5069002;28;20647;-75
2022/10/03 10:13:50;;;;;;;0.20;0.20;;;;;;;16.98;100.00;97599.75;5072234;28;20387;-77
2022/10/03 10:16:55;;;;;;;0.10;0.10;;;;;;;18.09;100.00;97598.53;5073498;28;20039;-77
2022/10/03 10:19:44;;;;;;;0.10;0.10;;;;;;;18.57;100.00;97599.09;5074512;28;20094;-77
2022/10/03 10:22:55;;;;;;;0.20;0.17;;;;;;;18.15;97.34;97595.84;5072368;28;20241;-74
2022/10/03 10:26:03;;;;;;;0.10;0.10;;;;;;;18.38;100.00;97596.13;5070407;28;20047;-75
2022/10/03 10:29:14;;;;;;;0.20;0.20;;;;;;;17.20;100.00;97593.38;5071115;28;20443;-75
2022/10/03 10:32:41;;;;;;;0.20;0.20;;;;;;;16.13;100.00;97606.09;5067604;28;20040;-75
2022/10/03 10:36:00;;;;;;;0.20;0.20;;;;;;;15.96;100.00;97603.53;4678303;28;10000013;-74
2022/10/03 10:39:13;;;;;;;0.08;0.08;;;;;;;16.24;100.00;97607.00;5083364;28;20441;-75
2022/10/03 10:42:25;;;;;;;0.10;0.10;;;;;;;16.58;100.00;97599.47;5089397;28;20433;-75
2022/10/03 10:45:20;;;;;;;0.00;0.00;;;;;;;16.43;100.00;97597.44;5063410;28;20112;-76
2022/10/03 10:48:15;;;;;;;0.10;0.10;;;;;;;16.27;100.00;97609.22;5091696;28;20130;-77
2022/10/03 10:51:37;;;;;;;0.10;0.10;;;;;;;16.11;100.00;97605.56;5090033;28;20329;-77
2022/10/03 10:54:59;;;;;;;0.20;0.20;;;;;;;15.94;100.00;97605.63;5074451;28;20038;-77
2022/10/03 10:58:04;;;;;;;0.10;0.10;;;;;;;16.72;100.00;97597.94;5091930;28;20904;-76
2022/10/03 11:01:31;;;;;;;0.40;0.30;;;;;;;21.30;67.13;97594.28;5072823;28;20155;-77
2022/10/03 11:04:38;;;;;;;0.10;0.10;;;;;;;25.59;41.89;97581.91;4990535;28;20046;-77
2022/10/03 11:07:55;;;;;;;0.10;0.10;;;;;;;22.60;51.67;97582.13;5091797;28;20124;-77
2022/10/03 11:11:14;;;;;;;0.10;0.10;;;;;;;20.43;59.90;97586.13;5092257;28;20039;-77
2022/10/03 11:14:00;;;;;;;0.10;0.10;;;;;;;19.87;73.70;97588.44;5093153;28;20452;-77
2022/10/03 11:17:07;;;;;;;0.10;0.10;;;;;;;18.52;71.85;97591.00;5089905;28;20035;-77
2022/10/03 11:20:14;;;;;;;0.10;0.10;;;;;;;19.09;78.86;97586.31;5092172;28;20086;-76
2022/10/03 11:23:24;;;;;;;0.10;0.10;;;;;;;18.65;75.94;97587.72;5093796;28;20130;-76
2022/10/03 11:26:25;;;;;;;0.10;0.10;;;;;;;18.04;89.41;97581.47;5090835;28;20104;-77
2022/10/03 11:30:02;;;;;;;0.20;0.20;;;;;;;17.25;88.64;97585.28;5090711;28;20047;-77
2022/10/03 11:33:39;;;;;;;0.10;0.10;;;;;;;16.73;93.62;97583.38;5026950;28;20491;-77
2022/10/03 11:36:55;;;;;;;0.17;0.17;;;;;;;16.69;98.25;97583.06;5019836;28;20036;-76
2022/10/03 11:39:59;;;;;;;0.10;0.10;;;;;;;16.86;98.13;97580.19;5089916;28;20554;-75
2022/10/03 11:43:00;;;;;;;0.25;0.20;;;;;;;19.87;82.22;97581.09;5089925;28;20046;-76
2022/10/03 11:45:53;;;;;;;0.10;0.10;;;;;;;18.61;76.50;97573.09;5091519;28;20470;-76
2022/10/03 11:48:45;;;;;;;0.10;0.10;;;;;;;18.04;88.74;97581.47;5091888;28;20113;-76
2022/10/03 11:51:49;;;;;;;0.10;0.10;;;;;;;17.28;87.67;97576.66;5088909;28;20238;-75
2022/10/03 11:54:39;;;;;;;0.10;0.10;;;;;;;17.23;95.59;97577.44;5076470;28;20032;-75
2022/10/03 11:57:37;;;;;;;0.20;0.20;;;;;;;17.03;92.62;97579.22;5091944;28;20113;-76
2022/10/03 12:00:24;;;;;;;0.10;0.10;;;;;;;17.20;97.83;97572.56;5091720;28;20071;-75
2022/10/03 12:03:25;;;;;;;0.10;0.10;;;;;;;17.28;93.29;97573.94;5090881;28;20422;-75
2022/10/03 12:09:54;;;;;;;0.10;0.10;;;;;;;18.06;91.83;97563.06;5092373;28;20044;-75
2022/10/03 12:13:05;;;;;;;0.10;0.10;;;;;;;24.10;46.21;97554.00;5097241;28;20510;-76
2022/10/03 12:15:55;;;;;;;0.20;0.20;;;;;;;23.51;54.78;97541.41;5093309;28;20042;-76
2022/10/03 12:18:41;;;;;;;0.10;0.10;;;;;;;23.53;49.46;97548.16;5092742;28;20801;-76
2022/10/03 12:21:38;;;;;;;0.00;0.00;;;;;;;21.64;58.27;97555.22;5089909;28;20380;-76
2022/10/03 12:24:31;;;;;;;0.10;0.10;;;;;;;19.82;71.98;97553.97;5089878;28;20473;-76
2022/10/03 12:27:56;;;;;;;0.10;0.10;;;;;;;17.84;80.51;97560.59;4741217;28;10001030;-76
2022/10/03 12:30:59;;;;;;;0.10;0.10;;;;;;;17.52;87.09;97556.16;5077408;28;20121;-76
2022/10/03 12:33:46;;;;;;;0.10;0.10;;;;;;;17.29;91.59;97547.72;5094768;28;20100;-76
2022/10/03 12:37:07;;;;;;;0.10;0.10;;;;;;;17.54;85.17;97553.19;5092329;28;20518;-76
2022/10/03 12:40:09;;;;;;;0.10;0.10;;;;;;;17.85;86.22;97551.41;5069361;28;20062;-76
2022/10/03 12:42:55;;;;;;;0.10;0.10;;;;;;;18.17;85.29;97553.06;5093535;28;20119;-76
2022/10/03 12:45:49;;;;;;;0.10;0.10;;;;;;;18.63;79.62;97541.09;5093941;28;20044;-76
2022/10/03 12:49:06;;;;;;;0.10;0.10;;;;;;;19.19;71.48;97548.28;5072043;28;20043;-76
2022/10/03 12:52:14;;;;;;;0.10;0.10;;;;;;;19.09;69.31;97537.47;5077387;28;20036;-76
2022/10/03 12:55:23;;;;;;;0.10;0.10;;;;;;;18.37;79.90;97540.31;5090645;28;20093;-76
2022/10/03 12:58:22;;;;;;;0.10;0.10;;;;;;;17.74;81.54;97537.03;5089434;28;20063;-77
2022/10/03 13:01:40;;;;;;;0.10;0.10;;;;;;;18.02;79.68;97530.28;5090057;28;20291;-76
2022/10/03 13:05:20;;;;;;;0.15;0.15;;;;;;;18.47;72.35;97536.78;5070248;28;20043;-77
2022/10/03 13:08:33;;;;;;;0.10;0.10;;;;;;;19.08;72.07;97525.00;4983039;28;20137;-76
2022/10/03 13:11:42;;;;;;;0.10;0.10;;;;;;;19.03;68.61;97533.16;4995969;28;20041;-76
2022/10/03 13:14:47;;;;;;;0.10;0.10;;;;;;;20.06;65.67;97526.09;5061998;28;20056;-77
2022/10/03 13:17:48;;;;;;;0.10;0.10;;;;;;;20.59;59.93;97530.56;5091588;28;20691;-76
2022/10/03 13:20:42;;;;;;;0.10;0.10;;;;;;;20.26;56.95;97528.66;5084674;28;20123;-76
2022/10/03 13:24:01;;;;;;;0.10;0.10;;;;;;;20.01;54.78;97535.91;5074464;28;20491;-77
2022/10/03 13:27:00;;;;;;;0.10;0.10;;;;;;;20.30;58.03;97533.22;5087473;28;20097;-77
2022/10/03 13:30:04;;;;;;;0.10;0.10;;;;;;;19.57;60.69;97529.69;5091279;28;20044;-76
2022/10/03 13:33:01;;;;;;;0.10;0.10;;;;;;;19.12;68.74;97529.59;5092748;28;20043;-76
2022/10/03 13:35:57;;;;;;;0.20;0.20;;;;;;;18.76;68.24;97533.53;5068822;28;20034;-76
2022/10/03 13:38:53;;;;;;;0.10;0.10;;;;;;;18.41;73.56;97532.44;5091818;28;20441;-76
2022/10/03 13:42:00;;;;;;;0.10;0.10;;;;;;;18.55;71.13;97547.06;5089781;28;20059;-76
2022/10/03 13:44:54;;;;;;;0.10;0.10;;;;;;;18.69;73.29;97539.22;5091295;28;20160;-76
2022/10/03 13:47:56;;;;;;;0.10;0.10;;;;;;;18.79;69.57;97531.06;5090433;28;20035;-76
2022/10/03 13:50:57;;;;;;;0.20;0.20;;;;;;;20.30;60.76;97535.13;5090514;28;20043;-76
2022/10/03 13:53:58;;;;;;;0.10;0.10;;;;;;;22.08;50.79;97515.91;5091001;28;20051;-76
2022/10/03 13:56:49;;;;;;;;;;;;;;;24.94;39.47;97516.91;5090108;28;20147;-77
2022/10/03 14:00:07;;;;;;;0.10;0.10;;;;;;;26.14;36.29;97521.03;5090180;28;20064;-77
2022/10/03 14:03:12;;;;;;;0.10;0.10;;;;;;;23.68;43.28;97511.53;5089857;28;20044;-76
2022/10/03 14:06:50;;;;;;;0.10;0.10;;;;;;;22.17;46.49;97517.66;5091028;28;20130;-77
2022/10/03 14:10:03;;;;;;;0.10;0.10;;;;;;;22.03;48.28;97516.78;5067459;28;20040;-76
2022/10/03 14:13:19;;;;;;;0.10;0.10;;;;;;;22.91;46.35;97519.69;5076407;28;20032;-76
2022/10/03 14:16:22;;;;;;;0.10;0.10;;;;;;;22.03;48.38;97511.34;5090516;28;20591;-76
2022/10/03 14:20:02;;;;;;;0.10;0.10;;;;;;;20.55;55.45;97515.13;5074692;28;20048;-76
2022/10/03 14:23:06;;;;;;;0.13;0.13;;;;;;;20.47;59.48;97508.41;5014207;28;20072;-76
2022/10/03 14:26:16;;;;;;;0.10;0.10;;;;;;;22.69;49.13;97512.94;5075268;28;20394;-76
2022/10/03 14:29:09;;;;;;;0.15;0.15;;;;;;;23.23;45.64;97508.66;5090372;28;20059;-76
2022/10/03 14:32:30;;;;;;;0.20;0.20;;;;;;;24.38;43.24;97496.50;5090047;28;20418;-76
2022/10/03 14:35:16;;;;;;;0.10;0.10;;;;;;;25.15;42.42;97506.22;5087029;28;20035;-76
2022/10/03 14:38:22;;;;;;;0.20;0.20;;;;;;;27.11;37.72;97495.81;5090653;28;20044;-76
2022/10/03 14:41:17;;;;;;;0.20;0.20;;;;;;;26.80;37.97;97499.63;5051165;28;20207;-76
2022/10/03 14:44:12;;;;;;;0.10;0.10;;;;;;;25.75;37.56;97509.09;5073728;28;20093;-76
2022/10/03 14:47:06;;;;;;;0.10;0.10;;;;;;;24.51;42.07;97494.78;5061237;28;20040;-76